createdAt,value
2019-04-01T00:01:50.512Z,54.42
2019-04-01T00:04:23.301Z,54.38
2019-04-01T00:06:56.078Z,54.69
2019-04-01T00:09:28.802Z,54.60
2019-04-01T00:12:03.172Z,54.80
2019-04-01T00:14:35.997Z,55.09
2019-04-01T00:17:09.225Z,55.05
2019-04-01T00:19:41.970Z,55.13
2019-04-01T00:22:14.714Z,55.06
2019-04-01T00:24:47.506Z,55.32
2019-04-01T00:27:20.360Z,55.55
2019-04-01T00:29:53.097Z,55.64
2019-04-01T00:32:25.921Z,55.52
2019-04-01T00:34:58.644Z,56.04
2019-04-01T00:37:31.856Z,55.25
2019-04-01T00:40:04.606Z,55.35
2019-04-01T00:42:50.505Z,55.88
2019-04-01T00:45:24.750Z,55.25
2019-04-01T00:47:57.569Z,55.07
2019-04-01T00:50:30.384Z,55.09
2019-04-01T00:53:03.206Z,54.68
2019-04-01T00:55:36.015Z,54.79
2019-04-01T00:58:08.779Z,55.00
2019-04-01T01:00:41.589Z,54.52
2019-04-01T01:03:14.416Z,55.10
2019-04-01T01:05:47.293Z,54.49
2019-04-01T01:08:20.440Z,54.60
2019-04-01T01:10:54.325Z,54.89
2019-04-01T01:13:27.290Z,54.50
2019-04-01T01:16:00.115Z,55.17
2019-04-01T01:18:33.002Z,54.86
2019-04-01T01:21:07.357Z,55.54
2019-04-01T01:23:41.182Z,54.69
2019-04-01T01:26:13.918Z,55.61
2019-04-01T01:28:46.800Z,54.34
2019-04-01T01:31:19.760Z,54.32
2019-04-01T01:33:52.739Z,55.41
2019-04-01T01:36:25.925Z,54.29
2019-04-01T01:38:58.730Z,54.29
2019-04-01T01:41:31.580Z,54.86
2019-04-01T01:44:04.920Z,54.15
2019-04-01T01:46:37.834Z,55.14
2019-04-01T01:49:10.708Z,54.65
2019-04-01T01:51:43.538Z,54.65
2019-04-01T01:54:17.438Z,55.11
2019-04-01T01:56:50.296Z,54.50
2019-04-01T01:59:23.221Z,55.83
2019-04-01T02:01:56.149Z,54.55
2019-04-01T02:04:29.084Z,54.45
2019-04-01T02:07:07.312Z,55.62
2019-04-01T02:09:44.748Z,54.67
2019-04-01T02:12:18.863Z,55.45
2019-04-01T02:14:51.716Z,54.84
2019-04-01T02:17:24.628Z,54.69
2019-04-01T02:19:57.557Z,55.77
2019-04-01T02:22:31.467Z,54.92
2019-04-01T02:25:04.245Z,55.04
2019-04-01T02:27:38.151Z,55.00
2019-04-01T02:30:10.995Z,54.81
2019-04-01T02:32:43.969Z,56.33
2019-04-01T02:35:16.879Z,54.93
2019-04-01T02:37:49.756Z,55.16
2019-04-01T02:40:22.621Z,55.80
2019-04-01T02:42:55.523Z,55.08
2019-04-01T02:45:28.297Z,56.47
2019-04-01T02:48:01.227Z,54.90
2019-04-01T02:50:35.250Z,55.02
2019-04-01T02:53:08.099Z,56.07
2019-04-01T02:55:41.137Z,54.65
2019-04-01T02:58:14.171Z,56.64
2019-04-01T03:00:47.118Z,54.98
2019-04-01T03:03:20.224Z,54.65
2019-04-01T03:05:54.418Z,56.03
2019-04-01T03:08:27.328Z,54.44
2019-04-01T03:11:00.316Z,54.67
2019-04-01T03:13:33.375Z,55.31
2019-04-01T03:16:06.471Z,54.87
2019-04-01T03:18:39.436Z,56.19
2019-04-01T03:21:12.394Z,54.60
2019-04-01T03:23:45.490Z,54.87
2019-04-01T03:26:18.533Z,55.08
2019-04-01T03:28:52.858Z,54.51
2019-04-01T03:31:25.998Z,55.22
2019-04-01T03:33:58.834Z,53.95
2019-04-01T03:36:32.523Z,55.44
2019-04-01T03:39:07.317Z,53.71
2019-04-01T03:41:40.334Z,53.69
2019-04-01T03:44:14.534Z,54.62
2019-04-01T03:46:47.505Z,53.61
2019-04-01T03:49:20.440Z,55.05
2019-04-01T03:51:54.842Z,53.62
2019-04-01T03:54:27.915Z,53.59
2019-04-01T03:57:01.325Z,54.01
2019-04-01T03:59:34.302Z,53.41
2019-04-01T04:02:07.852Z,54.41
2019-04-01T04:04:41.212Z,53.21
2019-04-01T04:07:16.768Z,54.48
2019-04-01T04:09:53.800Z,53.38
2019-04-01T04:12:27.434Z,53.39
2019-04-01T04:15:03.725Z,53.84
2019-04-01T04:17:36.894Z,53.51
2019-04-01T04:20:13.572Z,53.93
2019-04-01T04:22:50.113Z,53.37
2019-04-01T04:25:23.222Z,54.39
2019-04-01T04:27:56.412Z,53.26
2019-04-01T04:30:30.558Z,55.05
2019-04-01T04:33:03.662Z,52.97
2019-04-01T04:35:36.903Z,53.10
2019-04-01T04:38:10.467Z,54.31
2019-04-01T04:40:43.606Z,54.13
2019-04-01T04:43:16.779Z,54.97
2019-04-01T04:45:49.998Z,53.62
2019-04-01T04:48:23.233Z,53.51
2019-04-01T04:50:56.467Z,54.12
2019-04-01T04:53:29.833Z,53.36
2019-04-01T04:56:03.095Z,54.45
2019-04-01T04:58:36.467Z,53.29
2019-04-01T05:01:09.708Z,54.80
2019-04-01T05:03:42.932Z,53.33
2019-04-01T05:06:16.065Z,53.46
2019-04-01T05:08:50.715Z,54.26
2019-04-01T05:11:24.286Z,53.39
2019-04-01T05:13:57.779Z,54.62
2019-04-01T05:16:30.998Z,53.84
2019-04-01T05:19:04.166Z,53.86
2019-04-01T05:21:37.823Z,54.97
2019-04-01T05:24:12.089Z,54.77
2019-04-01T05:26:46.163Z,54.69
2019-04-01T05:29:19.383Z,54.75
2019-04-01T05:31:52.632Z,54.67
2019-04-01T05:34:25.979Z,56.13
2019-04-01T05:36:59.110Z,55.27
2019-04-01T05:39:33.229Z,57.35
2019-04-01T05:42:06.397Z,56.86
2019-04-01T05:44:39.530Z,56.25
2019-04-01T05:47:12.700Z,56.71
2019-04-01T05:49:45.847Z,56.68
2019-04-01T05:52:18.956Z,56.59
2019-04-01T05:54:52.057Z,56.62
2019-04-01T05:57:25.126Z,56.97
2019-04-01T05:59:58.122Z,57.05
2019-04-01T06:02:31.121Z,57.11
2019-04-01T06:05:04.097Z,57.13
2019-04-01T06:07:37.627Z,57.30
2019-04-01T06:10:10.568Z,57.24
2019-04-01T06:12:43.840Z,57.58
2019-04-01T06:15:16.770Z,57.38
2019-04-01T06:17:49.738Z,57.06
2019-04-01T06:20:22.671Z,57.84
2019-04-01T06:22:55.718Z,57.36
2019-04-01T06:25:29.306Z,57.12
2019-04-01T06:28:02.205Z,56.92
2019-04-01T06:30:35.208Z,57.13
2019-04-01T06:33:08.111Z,57.12
2019-04-01T06:35:41.179Z,57.00
2019-04-01T06:38:14.154Z,57.04
2019-04-01T06:40:47.233Z,57.09
2019-04-01T06:43:20.214Z,57.01
2019-04-01T06:45:53.227Z,56.91
2019-04-01T06:48:26.485Z,56.37
2019-04-01T06:50:59.395Z,56.87
2019-04-01T06:53:32.376Z,56.56
2019-04-01T06:56:05.366Z,56.40
2019-04-01T06:58:38.272Z,56.58
2019-04-01T07:01:11.265Z,59.75
2019-04-01T07:03:44.135Z,56.69
2019-04-01T07:06:17.078Z,56.06
2019-04-01T07:08:49.962Z,56.30
2019-04-01T07:11:23.101Z,56.50
2019-04-01T07:13:56.043Z,56.52
2019-04-01T07:16:29.082Z,56.04
2019-04-01T07:19:02.076Z,56.25
2019-04-01T07:21:35.035Z,55.91
2019-04-01T07:24:08.034Z,55.67
2019-04-01T07:26:41.331Z,56.22
2019-04-01T07:29:14.369Z,62.61
2019-04-01T07:31:47.391Z,54.23
2019-04-01T07:34:20.360Z,46.60
2019-04-01T07:36:53.341Z,46.54
2019-04-01T07:39:26.304Z,47.50
2019-04-01T07:41:59.282Z,47.48
2019-04-01T07:44:32.266Z,48.37
2019-04-01T07:47:05.225Z,49.02
2019-04-01T07:49:38.259Z,48.90
2019-04-01T07:52:12.719Z,48.49
2019-04-01T07:54:45.954Z,49.21
2019-04-01T07:57:19.226Z,48.38
2019-04-01T07:59:52.177Z,48.31
2019-04-01T08:02:25.311Z,49.10
2019-04-01T08:04:59.638Z,48.29
2019-04-01T08:07:32.685Z,48.45
2019-04-01T08:10:06.353Z,48.19
2019-04-01T08:12:39.202Z,48.85
2019-04-01T08:15:13.729Z,47.93
2019-04-01T08:17:46.645Z,46.74
2019-04-01T08:20:20.556Z,47.51
2019-04-01T08:22:54.375Z,46.51
2019-04-01T08:25:27.210Z,45.30
2019-04-01T08:28:00.143Z,44.53
2019-04-01T08:30:33.500Z,45.98
2019-04-01T08:33:07.657Z,45.27
2019-04-01T08:35:40.508Z,45.73
2019-04-01T08:38:13.425Z,41.36
2019-04-01T08:40:47.291Z,42.29
2019-04-01T08:43:20.312Z,41.21
2019-04-01T08:45:54.312Z,41.81
2019-04-01T08:48:28.270Z,42.89
2019-04-01T08:51:02.149Z,40.26
2019-04-01T08:53:35.121Z,39.53
2019-04-01T08:56:07.942Z,37.82
2019-04-01T08:58:41.178Z,36.18
2019-04-01T09:01:14.080Z,36.50
2019-04-01T09:03:47.005Z,36.04
2019-04-01T09:06:19.927Z,35.79
2019-04-01T09:08:52.827Z,36.04
2019-04-01T09:11:25.728Z,36.22
2019-04-01T09:13:59.116Z,34.85
2019-04-01T09:16:32.134Z,34.09
2019-04-01T09:19:05.026Z,36.21
2019-04-01T09:21:37.840Z,34.49
2019-04-01T09:24:10.711Z,33.85
2019-04-01T09:26:43.640Z,33.51
2019-04-01T09:29:16.648Z,33.12
2019-04-01T09:31:49.790Z,33.32
2019-04-01T09:34:22.663Z,33.25
2019-04-01T09:36:55.511Z,32.97
2019-04-01T09:39:28.360Z,32.90
2019-04-01T09:42:01.255Z,32.07
2019-04-01T09:44:37.057Z,32.62
2019-04-01T09:47:08.824Z,30.84
2019-04-01T09:49:41.663Z,32.70
2019-04-01T09:52:14.545Z,32.55
2019-04-01T09:54:47.336Z,31.91
2019-04-01T09:57:20.175Z,30.89
2019-04-01T09:59:53.169Z,31.62
2019-04-01T10:02:32.101Z,31.13
2019-04-01T10:05:01.618Z,31.78
2019-04-01T10:07:34.590Z,30.95
2019-04-01T10:10:07.556Z,30.11
2019-04-01T10:12:40.480Z,31.35
2019-04-01T10:15:13.388Z,30.73
2019-04-01T10:17:46.272Z,30.14
2019-04-01T10:20:19.118Z,30.85
2019-04-01T10:22:52.003Z,30.28
2019-04-01T10:25:24.986Z,29.60
2019-04-01T10:27:57.880Z,29.88
2019-04-01T10:30:30.714Z,30.35
2019-04-01T10:33:03.637Z,30.04
2019-04-01T10:35:36.855Z,30.63
2019-04-01T10:38:09.901Z,28.91
2019-04-01T10:40:42.805Z,29.06
2019-04-01T10:43:15.641Z,28.67
2019-04-01T10:45:48.561Z,28.51
2019-04-01T10:48:21.577Z,29.96
2019-04-01T10:50:54.804Z,29.30
2019-04-01T10:53:27.617Z,29.24
2019-04-01T10:56:01.444Z,29.85
2019-04-01T10:58:34.329Z,28.93
2019-04-01T11:01:07.211Z,29.66
2019-04-01T11:03:40.087Z,29.14
2019-04-01T11:06:12.938Z,30.34
2019-04-01T11:08:45.847Z,29.14
2019-04-01T11:11:18.748Z,29.47
2019-04-01T11:14:09.587Z,30.41
2019-04-01T11:17:03.756Z,29.55
2019-04-01T11:19:34.436Z,30.50
2019-04-01T11:22:07.304Z,29.61
2019-04-01T11:24:40.207Z,29.14
2019-04-01T11:27:13.186Z,30.26
2019-04-01T11:29:46.452Z,30.61
2019-04-01T11:32:20.032Z,30.46
2019-04-01T11:34:56.027Z,30.42
2019-04-01T11:37:28.442Z,29.33
2019-04-01T11:40:01.352Z,29.60
2019-04-01T11:42:34.297Z,29.72
2019-04-01T11:45:08.377Z,30.08
2019-04-01T11:47:41.256Z,30.08
2019-04-01T11:50:14.187Z,29.66
2019-04-01T11:52:47.129Z,29.86
2019-04-01T11:55:20.218Z,29.91
2019-04-01T11:57:53.102Z,30.20
2019-04-01T12:00:26.355Z,30.08
2019-04-01T12:02:59.221Z,30.97
2019-04-01T12:05:32.250Z,30.56
2019-04-01T12:08:07.141Z,29.28
2019-04-01T12:10:40.007Z,29.74
2019-04-01T12:13:12.969Z,29.78
2019-04-01T12:15:45.965Z,29.44
2019-04-01T12:18:19.199Z,29.52
2019-04-01T12:20:52.091Z,29.86
2019-04-01T12:23:25.414Z,29.76
2019-04-01T12:25:58.214Z,29.80
2019-04-01T12:28:31.498Z,29.44
2019-04-01T12:31:04.310Z,29.49
2019-04-01T12:33:37.327Z,30.21
2019-04-01T12:36:11.804Z,29.80
2019-04-01T12:38:44.921Z,30.00
2019-04-01T12:41:18.323Z,29.90
2019-04-01T12:43:51.916Z,29.03
2019-04-01T12:46:24.860Z,31.61
2019-04-01T12:48:57.805Z,30.28
2019-04-01T12:51:30.570Z,31.05
2019-04-01T12:54:03.406Z,30.51
2019-04-01T12:56:36.413Z,30.80
2019-04-01T12:59:09.783Z,30.41
2019-04-01T13:01:42.598Z,30.77
2019-04-01T13:04:15.374Z,30.12
2019-04-01T13:06:48.243Z,30.72
2019-04-01T13:09:22.119Z,29.83
2019-04-01T13:11:55.086Z,30.32
2019-04-01T13:14:27.898Z,29.26
2019-04-01T13:17:00.731Z,29.93
2019-04-01T13:19:33.574Z,29.27
2019-04-01T13:22:06.389Z,29.83
2019-04-01T13:24:39.320Z,30.36
2019-04-01T13:27:12.138Z,30.00
2019-04-01T13:29:45.385Z,29.44
2019-04-01T13:32:20.155Z,30.42
2019-04-01T13:34:53.209Z,31.17
2019-04-01T13:37:26.033Z,28.75
2019-04-01T13:40:02.223Z,29.78
2019-04-01T13:42:33.329Z,28.97
2019-04-01T13:45:06.621Z,29.07
2019-04-01T13:47:41.249Z,28.04
2019-04-01T13:50:16.402Z,28.74
2019-04-01T13:52:49.337Z,28.80
2019-04-01T13:55:22.574Z,29.16
2019-04-01T13:57:55.946Z,28.24
2019-04-01T14:00:28.923Z,28.46
2019-04-01T14:03:01.758Z,29.30
2019-04-01T14:05:34.747Z,29.20
2019-04-01T14:08:07.662Z,30.42
2019-04-01T14:10:40.795Z,30.41
2019-04-01T14:13:15.098Z,30.30
2019-04-01T14:15:51.210Z,29.87
2019-04-01T14:18:23.002Z,29.40
2019-04-01T14:20:55.957Z,29.34
2019-04-01T14:23:28.852Z,29.70
2019-04-01T14:26:01.736Z,29.44
2019-04-01T14:28:34.626Z,29.84
2019-04-01T14:31:07.777Z,29.89
2019-04-01T14:33:40.596Z,30.38
2019-04-01T14:36:13.449Z,29.52
2019-04-01T14:38:46.416Z,30.37
2019-04-01T14:41:25.919Z,29.76
2019-04-01T14:44:00.261Z,30.31
2019-04-01T14:46:33.146Z,30.05
2019-04-01T14:49:06.148Z,30.41
2019-04-01T14:51:39.413Z,30.53
2019-04-01T14:54:15.804Z,31.15
2019-04-01T14:57:08.791Z,31.58
2019-04-01T14:59:45.055Z,30.39
2019-04-01T15:03:08.584Z,30.33
2019-04-01T15:05:52.613Z,31.29
2019-04-01T15:08:31.313Z,31.22
2019-04-01T15:11:04.133Z,30.89
2019-04-01T15:13:38.424Z,31.29
2019-04-01T15:16:12.221Z,31.37
2019-04-01T15:18:45.531Z,31.04
2019-04-01T15:21:18.647Z,31.64
2019-04-01T15:23:53.336Z,30.73
2019-04-01T15:26:26.259Z,31.15
2019-04-01T15:29:00.370Z,31.45
2019-04-01T15:31:33.152Z,31.15
2019-04-01T15:34:08.979Z,31.90
2019-04-01T15:36:40.519Z,31.69
2019-04-01T15:39:15.348Z,31.48
2019-04-01T15:41:48.555Z,31.38
2019-04-01T15:44:21.347Z,31.43
2019-04-01T15:46:54.075Z,31.46
2019-04-01T15:49:26.897Z,31.25
2019-04-01T15:51:59.713Z,31.49
2019-04-01T15:54:33.219Z,31.76
2019-04-01T15:57:06.080Z,31.53
2019-04-01T15:59:39.083Z,31.86
2019-04-01T16:02:11.882Z,32.18
2019-04-01T16:04:45.671Z,32.38
2019-04-01T16:07:18.786Z,31.94
2019-04-01T16:09:52.705Z,31.93
2019-04-01T16:12:25.512Z,31.83
2019-04-01T16:14:58.295Z,32.44
2019-04-01T16:17:31.032Z,32.79
2019-04-01T16:20:06.567Z,32.37
2019-04-01T16:22:43.569Z,32.25
2019-04-01T16:25:15.410Z,32.99
2019-04-01T16:27:48.279Z,32.90
2019-04-01T16:30:21.290Z,33.15
2019-04-01T16:32:54.118Z,33.21
2019-04-01T16:35:26.844Z,33.44
2019-04-01T16:38:20.075Z,33.51
2019-04-01T16:40:57.437Z,33.68
2019-04-01T16:43:30.517Z,33.81
2019-04-01T16:46:03.451Z,33.85
2019-04-01T16:48:36.407Z,33.82
2019-04-01T16:51:09.481Z,33.53
2019-04-01T16:53:45.395Z,33.42
2019-04-01T16:56:18.131Z,33.48
2019-04-01T16:58:51.183Z,34.06
2019-04-01T17:01:24.908Z,33.70
2019-04-01T17:03:58.359Z,34.38
2019-04-01T17:06:31.335Z,33.80
2019-04-01T17:09:53.465Z,34.31
2019-04-01T17:12:55.781Z,34.07
2019-04-01T17:15:33.531Z,33.92
2019-04-01T17:18:30.026Z,34.25
2019-04-01T17:21:05.120Z,34.40
2019-04-01T17:23:41.680Z,34.33
2019-04-01T17:26:12.831Z,34.18
2019-04-01T17:28:45.996Z,33.97
2019-04-01T17:31:18.910Z,34.21
2019-04-01T17:33:51.851Z,34.25
2019-04-01T17:36:26.192Z,34.15
2019-04-01T17:38:59.203Z,34.20
2019-04-01T17:41:32.272Z,33.97
2019-04-01T17:44:06.810Z,34.33
2019-04-01T17:46:39.767Z,34.52
2019-04-01T17:49:18.063Z,34.43
2019-04-01T17:51:53.820Z,34.66
2019-04-01T17:54:25.778Z,34.69
2019-04-01T17:56:58.783Z,34.78
2019-04-01T17:59:32.505Z,34.55
2019-04-01T18:02:08.970Z,34.97
2019-04-01T18:04:41.994Z,34.61
2019-04-01T18:07:15.537Z,34.61
2019-04-01T18:09:48.560Z,34.88
2019-04-01T18:12:21.527Z,34.75
2019-04-01T18:14:55.431Z,34.90
2019-04-01T18:17:28.520Z,34.94
2019-04-01T18:20:01.505Z,34.79
2019-04-01T18:22:34.697Z,35.01
2019-04-01T18:25:07.680Z,34.67
2019-04-01T18:27:40.917Z,34.68
2019-04-01T18:30:14.167Z,35.12
2019-04-01T18:32:47.129Z,35.12
2019-04-01T18:35:20.111Z,35.20
2019-04-01T18:37:53.105Z,35.14
2019-04-01T18:40:32.483Z,35.21
2019-04-01T18:43:00.704Z,35.50
2019-04-01T18:45:34.975Z,35.74
2019-04-01T18:48:07.959Z,35.83
2019-04-01T18:50:43.189Z,36.31
2019-04-01T18:53:28.604Z,36.06
2019-04-01T18:56:05.658Z,35.98
2019-04-01T18:58:43.480Z,36.18
2019-04-01T19:01:16.669Z,36.26
2019-04-01T19:03:49.650Z,36.58
2019-04-01T19:06:22.659Z,36.66
2019-04-01T19:09:08.440Z,37.03
2019-04-01T19:11:30.425Z,37.05
2019-04-01T19:14:03.481Z,37.12
2019-04-01T19:16:38.350Z,37.41
2019-04-01T19:19:13.921Z,37.59
2019-04-01T19:21:47.993Z,37.86
2019-04-01T19:24:20.970Z,38.03
2019-04-01T19:26:54.153Z,37.99
2019-04-01T19:29:27.258Z,38.28
2019-04-01T19:32:01.242Z,38.46
2019-04-01T19:34:34.281Z,38.66
2019-04-01T19:37:09.029Z,38.66
2019-04-01T19:39:42.094Z,39.19
2019-04-01T19:42:17.968Z,38.92
2019-04-01T19:44:52.044Z,39.24
2019-04-01T19:47:25.004Z,39.36
2019-04-01T19:49:57.884Z,39.47
2019-04-01T19:52:30.745Z,39.38
2019-04-01T19:55:03.787Z,39.71
2019-04-01T19:57:36.904Z,39.73
2019-04-01T20:00:09.897Z,40.27
2019-04-01T20:02:42.913Z,40.18
2019-04-01T20:05:15.946Z,40.40
2019-04-01T20:07:49.051Z,40.16
2019-04-01T20:10:21.996Z,40.25
2019-04-01T20:12:55.057Z,40.60
2019-04-01T20:15:28.225Z,40.58
2019-04-01T20:18:01.423Z,40.73
2019-04-01T20:20:34.570Z,40.78
2019-04-01T20:23:07.695Z,40.89
2019-04-01T20:25:40.888Z,41.02
2019-04-01T20:28:13.874Z,41.22
2019-04-01T20:30:47.456Z,41.13
2019-04-01T20:33:20.799Z,41.28
2019-04-01T20:35:54.171Z,41.34
2019-04-01T20:38:27.671Z,41.57
2019-04-01T20:41:00.759Z,41.59
2019-04-01T20:43:33.848Z,41.48
2019-04-01T20:46:06.892Z,41.59
2019-04-01T20:48:39.848Z,41.96
2019-04-01T20:51:12.797Z,42.09
2019-04-01T20:53:47.164Z,42.09
2019-04-01T20:56:21.773Z,42.35
2019-04-01T20:58:56.005Z,42.33
2019-04-01T21:01:29.329Z,42.81
2019-04-01T21:04:02.766Z,42.61
2019-04-01T21:06:37.441Z,42.60
2019-04-01T21:09:11.214Z,43.26
2019-04-01T21:11:44.332Z,43.01
2019-04-01T21:14:17.350Z,42.83
2019-04-01T21:16:50.317Z,42.85
2019-04-01T21:19:23.492Z,42.84
2019-04-01T21:21:56.962Z,43.08
2019-04-01T21:24:29.894Z,43.24
2019-04-01T21:27:02.910Z,43.36
2019-04-01T21:29:36.053Z,43.31
2019-04-01T21:32:09.354Z,43.37
2019-04-01T21:34:42.233Z,43.61
2019-04-01T21:37:15.161Z,43.61
2019-04-01T21:39:48.712Z,43.87
2019-04-01T21:42:22.123Z,44.14
2019-04-01T21:44:55.531Z,44.21
2019-04-01T21:47:28.483Z,44.23
2019-04-01T21:50:01.579Z,44.31
2019-04-01T21:52:39.215Z,44.30
2019-04-01T21:55:16.264Z,44.25
2019-04-01T21:57:51.059Z,44.38
2019-04-01T22:00:43.172Z,44.46
2019-04-01T22:03:16.471Z,44.36
2019-04-01T22:05:49.379Z,44.29
2019-04-01T22:08:22.361Z,44.44
2019-04-01T22:10:55.381Z,44.46
2019-04-01T22:13:30.313Z,44.41
2019-04-01T22:16:03.128Z,44.53
2019-04-01T22:18:36.101Z,44.90
2019-04-01T22:21:09.043Z,44.37
2019-04-01T22:23:41.974Z,44.48
2019-04-01T22:26:16.028Z,44.71
2019-04-01T22:28:49.086Z,44.45
2019-04-01T22:31:22.269Z,44.73
2019-04-01T22:33:55.578Z,44.59
2019-04-01T22:36:31.349Z,44.79
2019-04-01T22:39:06.790Z,45.28
2019-04-01T22:41:41.620Z,44.87
2019-04-01T22:44:15.619Z,44.56
2019-04-01T22:46:50.235Z,45.18
2019-04-01T22:49:23.660Z,44.95
2019-04-01T22:51:56.888Z,45.13
2019-04-01T22:54:31.105Z,45.13
2019-04-01T22:57:06.671Z,45.25
2019-04-01T22:59:43.501Z,45.56
2019-04-01T23:02:16.861Z,44.97
2019-04-01T23:04:50.481Z,45.06
2019-04-01T23:07:23.966Z,45.51
2019-04-01T23:09:58.089Z,45.16
2019-04-01T23:12:32.328Z,45.60
2019-04-01T23:15:06.570Z,45.07
2019-04-01T23:17:42.447Z,45.55
2019-04-01T23:20:18.493Z,45.15
2019-04-01T23:22:52.090Z,45.54
2019-04-01T23:25:26.263Z,44.89
2019-04-01T23:28:00.922Z,44.76
2019-04-01T23:30:37.862Z,45.10
2019-04-01T23:33:12.050Z,44.60
2019-04-01T23:35:45.472Z,44.66
2019-04-01T23:38:19.216Z,44.97
2019-04-01T23:40:53.849Z,44.55
2019-04-01T23:43:27.209Z,45.13
2019-04-01T23:46:00.980Z,43.96
2019-04-01T23:48:35.780Z,44.21
2019-04-01T23:51:09.228Z,44.13
2019-04-01T23:53:42.733Z,43.86
2019-04-01T23:56:16.952Z,43.89
2019-04-01T23:58:51.159Z,43.41
